createdAt,value
2023-11-26T00:00:59.997Z,7.80
2023-11-26T00:03:29.844Z,8.60
2023-11-26T00:05:57.229Z,8.03
2023-11-26T00:08:24.927Z,7.50
2023-11-26T00:10:52.800Z,8.03
2023-11-26T00:13:20.379Z,7.27
2023-11-26T00:15:47.735Z,6.93
2023-11-26T00:18:15.449Z,7.90
2023-11-26T00:20:43.244Z,7.70
2023-11-26T00:23:10.893Z,7.37
2023-11-26T00:25:38.230Z,7.72
2023-11-26T00:28:05.516Z,8.05
2023-11-26T00:30:32.969Z,8.03
2023-11-26T00:33:00.228Z,7.50
2023-11-26T00:35:28.126Z,8.23
2023-11-26T00:37:55.513Z,7.68
2023-11-26T00:40:25.847Z,5.50
2023-11-26T00:42:53.442Z,5.10
2023-11-26T00:45:21.051Z,4.63
2023-11-26T00:47:48.663Z,4.87
2023-11-26T00:50:18.684Z,4.17
2023-11-26T00:52:47.348Z,4.03
2023-11-26T00:55:14.773Z,4.03
2023-11-26T00:57:42.401Z,4.13
2023-11-26T01:00:13.547Z,4.17
2023-11-26T01:02:42.374Z,3.75
2023-11-26T01:05:10.015Z,3.37
2023-11-26T01:07:37.953Z,3.40
2023-11-26T01:10:05.856Z,2.85
2023-11-26T01:12:33.296Z,3.13
2023-11-26T01:15:02.042Z,3.20
2023-11-26T01:17:29.621Z,3.80
2023-11-26T01:19:57.635Z,3.67
2023-11-26T01:22:26.053Z,3.97
2023-11-26T01:24:53.563Z,4.10
2023-11-26T01:27:20.851Z,4.25
2023-11-26T01:29:48.786Z,3.97
2023-11-26T01:32:16.062Z,4.07
2023-11-26T01:34:43.363Z,4.37
2023-11-26T01:37:10.777Z,3.88
2023-11-26T01:39:40.864Z,4.20
2023-11-26T01:42:08.799Z,4.53
2023-11-26T01:44:36.322Z,3.63
2023-11-26T01:47:06.237Z,3.87
2023-11-26T01:49:35.447Z,3.53
2023-11-26T01:52:04.765Z,3.20
2023-11-26T01:54:35.841Z,3.50
2023-11-26T01:57:05.942Z,2.93
2023-11-26T01:59:33.848Z,3.10
2023-11-26T02:02:01.385Z,3.07
2023-11-26T02:04:29.729Z,2.83
2023-11-26T02:06:57.690Z,2.70
2023-11-26T02:09:25.127Z,2.53
2023-11-26T02:11:53.049Z,2.60
2023-11-26T02:14:21.207Z,2.20
2023-11-26T02:16:49.001Z,2.80
2023-11-26T02:19:39.388Z,2.50
2023-11-26T02:22:09.702Z,2.50
2023-11-26T02:24:45.732Z,2.43
2023-11-26T02:27:13.644Z,2.55
2023-11-26T02:29:42.197Z,2.40
2023-11-26T02:32:10.752Z,2.80
2023-11-26T02:34:38.138Z,2.30
2023-11-26T02:37:05.461Z,2.30
2023-11-26T02:39:32.823Z,2.20
2023-11-26T02:42:00.454Z,2.40
2023-11-26T02:44:28.165Z,2.20
2023-11-26T02:46:55.468Z,2.10
2023-11-26T02:49:23.607Z,2.00
2023-11-26T02:51:50.948Z,1.77
2023-11-26T02:54:18.265Z,1.93
2023-11-26T02:56:45.546Z,1.70
2023-11-26T02:59:15.667Z,1.77
2023-11-26T03:01:43.398Z,1.60
2023-11-26T03:04:11.428Z,1.60
2023-11-26T03:06:40.413Z,1.63
2023-11-26T03:09:30.508Z,1.40
2023-11-26T03:12:16.694Z,1.63
2023-11-26T03:14:46.221Z,1.65
2023-11-26T03:17:16.909Z,1.67
2023-11-26T03:19:47.060Z,1.40
2023-11-26T03:22:16.303Z,1.70
2023-11-26T03:24:44.002Z,1.70
2023-11-26T03:27:14.180Z,1.37
2023-11-26T03:30:44.925Z,1.40
2023-11-26T03:33:16.690Z,1.23
2023-11-26T03:35:46.205Z,1.53
2023-11-26T03:38:15.174Z,1.60
2023-11-26T03:40:42.584Z,1.80
2023-11-26T03:43:11.979Z,1.70
2023-11-26T03:45:40.448Z,1.17
2023-11-26T03:48:07.851Z,1.40
2023-11-26T03:50:35.157Z,1.37
2023-11-26T03:53:02.433Z,1.50
2023-11-26T03:55:30.105Z,1.53
2023-11-26T03:57:57.533Z,1.40
2023-11-26T04:00:24.856Z,1.13
2023-11-26T04:02:52.242Z,1.37
2023-11-26T04:05:19.796Z,1.30
2023-11-26T04:07:47.346Z,1.40
2023-11-26T04:10:22.340Z,1.57
2023-11-26T04:12:55.289Z,1.93
2023-11-26T04:15:24.069Z,1.30
2023-11-26T04:17:51.722Z,1.60
2023-11-26T04:20:19.167Z,1.30
2023-11-26T04:22:46.517Z,1.37
2023-11-26T04:25:15.829Z,1.30
2023-11-26T04:27:43.151Z,1.67
2023-11-26T04:30:11.133Z,1.37
2023-11-26T04:32:38.548Z,1.27
2023-11-26T04:35:07.263Z,1.60
2023-11-26T04:37:35.407Z,1.23
2023-11-26T04:40:02.768Z,1.50
2023-11-26T04:42:30.164Z,1.70
2023-11-26T04:44:57.672Z,1.90
2023-11-26T04:47:25.076Z,1.50
2023-11-26T04:49:57.172Z,1.60
2023-11-26T04:52:24.784Z,1.60
2023-11-26T04:54:52.092Z,1.60
2023-11-26T04:57:19.460Z,1.63
2023-11-26T04:59:46.775Z,2.10
2023-11-26T05:02:15.455Z,1.40
2023-11-26T05:04:43.143Z,1.23
2023-11-26T05:07:10.473Z,1.80
2023-11-26T05:09:37.785Z,1.53
2023-11-26T05:12:07.987Z,1.60
2023-11-26T05:14:35.354Z,1.57
2023-11-26T05:17:02.697Z,1.50
2023-11-26T05:19:30.712Z,1.20
2023-11-26T05:21:58.432Z,1.43
2023-11-26T05:24:25.733Z,1.30
2023-11-26T05:26:54.321Z,1.70
2023-11-26T05:29:21.657Z,1.57
2023-11-26T05:31:49.018Z,1.30
2023-11-26T05:34:16.290Z,1.17
2023-11-26T05:36:43.653Z,1.70
2023-11-26T05:39:11.025Z,1.67
2023-11-26T05:41:38.543Z,1.30
2023-11-26T05:44:06.085Z,1.60
2023-11-26T05:46:33.537Z,1.90
2023-11-26T05:49:00.966Z,2.03
2023-11-26T05:51:30.558Z,1.60
2023-11-26T05:53:58.125Z,1.80
2023-11-26T05:56:25.781Z,1.60
2023-11-26T05:58:53.173Z,1.90
2023-11-26T06:01:26.744Z,1.70
2023-11-26T06:03:55.777Z,1.30
2023-11-26T06:06:23.983Z,1.30
2023-11-26T06:08:51.665Z,1.63
2023-11-26T06:11:19.009Z,1.10
2023-11-26T06:13:46.384Z,1.17
2023-11-26T06:16:13.751Z,1.20
2023-11-26T06:18:41.037Z,1.40
2023-11-26T06:21:08.448Z,1.20
2023-11-26T06:23:35.815Z,1.20
2023-11-26T06:26:05.889Z,1.20
2023-11-26T06:28:33.777Z,1.17
2023-11-26T06:31:01.113Z,1.33
2023-11-26T06:33:41.656Z,1.57
2023-11-26T06:36:17.822Z,1.10
2023-11-26T06:38:45.100Z,1.23
2023-11-26T06:41:26.614Z,1.20
2023-11-26T06:43:55.088Z,1.20
2023-11-26T06:46:24.032Z,1.20
2023-11-26T06:48:52.474Z,1.03
2023-11-26T06:51:20.188Z,1.47
2023-11-26T06:53:48.837Z,1.43
2023-11-26T06:56:16.680Z,1.60
2023-11-26T06:58:45.948Z,1.50
2023-11-26T07:01:13.842Z,1.50
2023-11-26T07:03:41.680Z,1.60
2023-11-26T07:06:13.209Z,1.60
2023-11-26T07:08:44.000Z,1.40
2023-11-26T07:11:19.586Z,1.40
2023-11-26T07:13:48.876Z,1.50
2023-11-26T07:16:22.232Z,1.50
2023-11-26T07:18:51.125Z,1.50
2023-11-26T07:21:19.141Z,1.40
2023-11-26T07:23:47.858Z,1.20
2023-11-26T07:26:22.571Z,1.30
2023-11-26T07:28:53.194Z,1.40
2023-11-26T07:31:22.265Z,1.42
2023-11-26T07:33:49.901Z,1.30
2023-11-26T07:36:28.550Z,1.40
2023-11-26T07:38:57.399Z,1.48
2023-11-26T07:41:24.869Z,1.30
2023-11-26T07:43:54.535Z,1.65
2023-11-26T07:46:23.021Z,1.58
2023-11-26T07:48:51.505Z,1.80
2023-11-26T07:51:19.280Z,2.03
2023-11-26T07:53:47.881Z,1.90
2023-11-26T07:56:16.214Z,1.73
2023-11-26T07:58:44.762Z,1.92
2023-11-26T08:01:12.878Z,1.75
2023-11-26T08:03:40.537Z,1.70
2023-11-26T08:06:14.087Z,1.98
2023-11-26T08:08:41.815Z,1.75
2023-11-26T08:11:10.938Z,1.98
2023-11-26T08:13:42.766Z,2.17
2023-11-26T08:16:11.396Z,2.00
2023-11-26T08:18:41.323Z,1.90
2023-11-26T08:21:09.339Z,2.28
2023-11-26T08:23:47.182Z,2.20
2023-11-26T08:26:17.132Z,1.85
2023-11-26T08:28:44.984Z,2.30
2023-11-26T08:31:13.025Z,1.92
2023-11-26T08:33:44.838Z,2.28
2023-11-26T08:36:14.111Z,3.78
2023-11-26T08:38:43.448Z,4.35
2023-11-26T08:41:12.571Z,5.10
2023-11-26T08:43:44.795Z,9.85
2023-11-26T08:46:16.064Z,8.57
2023-11-26T08:48:46.892Z,4.20
2023-11-26T08:51:15.322Z,2.85
2023-11-26T08:53:44.680Z,2.72
2023-11-26T08:56:12.424Z,2.25
2023-11-26T08:58:39.721Z,2.60
2023-11-26T09:01:07.040Z,2.50
2023-11-26T09:03:34.690Z,2.75
2023-11-26T09:06:02.188Z,2.85
2023-11-26T09:08:31.010Z,2.70
2023-11-26T09:11:00.092Z,2.40
2023-11-26T09:13:30.453Z,2.42
2023-11-26T09:16:01.814Z,3.08
2023-11-26T09:18:31.579Z,2.65
2023-11-26T09:20:59.943Z,2.47
2023-11-26T09:23:27.401Z,2.42
2023-11-26T09:25:54.770Z,2.78
2023-11-26T09:28:22.607Z,3.03
2023-11-26T09:30:51.272Z,2.58
2023-11-26T09:33:19.108Z,2.55
2023-11-26T09:35:46.604Z,2.40
2023-11-26T09:38:13.884Z,2.53
2023-11-26T09:40:42.983Z,2.20
2023-11-26T09:43:10.685Z,2.40
2023-11-26T09:45:41.048Z,2.38
2023-11-26T09:48:10.686Z,2.70
2023-11-26T09:50:39.445Z,2.70
2023-11-26T09:53:08.775Z,2.53
2023-11-26T09:55:43.115Z,2.50
2023-11-26T09:58:10.523Z,2.53
2023-11-26T10:00:38.371Z,2.92
2023-11-26T10:03:06.590Z,1.95
2023-11-26T10:05:34.230Z,2.17
2023-11-26T10:08:03.656Z,2.20
2023-11-26T10:10:31.201Z,2.53
2023-11-26T10:13:06.008Z,2.60
2023-11-26T10:15:35.050Z,4.37
2023-11-26T10:18:15.191Z,4.25
2023-11-26T10:20:44.684Z,4.07
2023-11-26T10:23:14.574Z,3.85
2023-11-26T10:25:45.996Z,4.05
2023-11-26T10:28:17.557Z,2.97
2023-11-26T10:30:45.740Z,3.17
2023-11-26T10:33:13.795Z,2.67
2023-11-26T10:35:57.428Z,3.10
2023-11-26T10:38:29.308Z,2.85
2023-11-26T10:40:58.459Z,2.95
2023-11-26T10:43:26.543Z,2.53
2023-11-26T10:45:56.682Z,2.90
2023-11-26T10:48:27.371Z,2.80
2023-11-26T10:51:07.095Z,2.90
2023-11-26T10:53:52.735Z,3.20
2023-11-26T10:56:27.560Z,3.33
2023-11-26T10:58:59.467Z,3.42
2023-11-26T11:01:27.049Z,3.15
2023-11-26T11:03:55.519Z,3.13
2023-11-26T11:06:24.649Z,3.65
2023-11-26T11:08:52.970Z,3.08
2023-11-26T11:11:28.083Z,8.95
2023-11-26T11:13:57.841Z,2.90
2023-11-26T11:16:25.669Z,2.83
2023-11-26T11:18:54.317Z,2.78
2023-11-26T11:21:21.768Z,2.90
2023-11-26T11:23:54.549Z,3.15
2023-11-26T11:26:23.697Z,3.70
2023-11-26T11:28:54.568Z,2.70
2023-11-26T11:31:24.141Z,3.83
2023-11-26T11:38:13.358Z,3.40
2023-11-26T11:41:00.190Z,3.10
2023-11-26T11:46:02.904Z,4.00
2023-11-26T11:48:39.680Z,3.25
2023-11-26T11:51:43.657Z,3.95
2023-11-26T11:54:10.926Z,4.13
2023-11-26T11:56:42.413Z,3.60
2023-11-26T11:59:12.744Z,3.80
2023-11-26T12:01:40.837Z,3.33
2023-11-26T12:04:11.434Z,3.60
2023-11-26T12:06:44.218Z,3.05
2023-11-26T12:09:12.489Z,3.60
2023-11-26T12:11:48.675Z,3.85
2023-11-26T12:14:25.812Z,3.75
2023-11-26T12:16:53.339Z,3.50
2023-11-26T12:19:21.080Z,3.63
2023-11-26T12:21:50.323Z,3.92
2023-11-26T12:24:25.088Z,3.45
2023-11-26T12:26:53.163Z,4.28
2023-11-26T12:29:31.742Z,3.47
2023-11-26T12:32:07.694Z,3.58
2023-11-26T12:34:40.043Z,3.60
2023-11-26T12:37:11.129Z,3.00
2023-11-26T12:39:42.944Z,2.90
2023-11-26T12:42:10.703Z,3.15
2023-11-26T12:44:38.113Z,3.05
2023-11-26T12:47:13.145Z,3.63
2023-11-26T12:49:41.834Z,3.50
2023-11-26T12:52:10.526Z,2.95
2023-11-26T12:54:38.707Z,5.68
2023-11-26T12:57:07.400Z,3.20
2023-11-26T12:59:48.629Z,2.85
2023-11-26T13:02:17.232Z,2.83
2023-11-26T13:04:44.890Z,3.50
2023-11-26T13:07:14.882Z,2.97
2023-11-26T13:09:52.509Z,3.25
2023-11-26T13:12:21.428Z,2.72
2023-11-26T13:14:49.739Z,3.08
2023-11-26T13:17:19.586Z,2.85
2023-11-26T13:19:48.538Z,3.25
2023-11-26T13:22:16.206Z,2.75
2023-11-26T13:24:43.817Z,3.20
2023-11-26T13:27:11.133Z,2.72
2023-11-26T13:29:38.401Z,2.60
2023-11-26T13:32:06.188Z,2.80
2023-11-26T13:34:33.603Z,2.40
2023-11-26T13:37:00.992Z,2.42
2023-11-26T13:39:28.866Z,2.60
2023-11-26T13:41:56.299Z,2.30
2023-11-26T13:44:23.848Z,2.20
2023-11-26T13:46:52.758Z,2.55
2023-11-26T13:49:22.434Z,2.20
2023-11-26T13:51:50.555Z,2.35
2023-11-26T13:54:17.858Z,2.42
2023-11-26T13:56:45.567Z,2.35
2023-11-26T13:59:13.215Z,2.55
2023-11-26T14:01:40.645Z,2.40
2023-11-26T14:04:08.103Z,2.10
2023-11-26T14:06:35.801Z,2.30
2023-11-26T14:09:04.026Z,2.50
2023-11-26T14:11:31.381Z,2.40
2023-11-26T14:14:00.870Z,2.38
2023-11-26T14:16:30.577Z,2.90
2023-11-26T14:18:57.937Z,2.88
2023-11-26T14:21:26.647Z,2.60
2023-11-26T14:23:54.479Z,2.50
2023-11-26T14:26:21.891Z,2.53
2023-11-26T14:28:49.474Z,2.13
2023-11-26T14:31:16.889Z,2.78
2023-11-26T14:33:44.335Z,2.90
2023-11-26T14:36:16.267Z,2.60
2023-11-26T14:38:43.768Z,2.45
2023-11-26T14:42:02.608Z,2.38
2023-11-26T14:44:30.617Z,2.30
2023-11-26T14:46:58.229Z,2.55
2023-11-26T14:49:25.546Z,2.33
2023-11-26T14:51:55.275Z,2.50
2023-11-26T14:54:22.858Z,2.50
2023-11-26T14:56:53.071Z,2.50
2023-11-26T14:59:20.498Z,2.53
2023-11-26T15:01:50.277Z,2.35
2023-11-26T15:04:17.906Z,2.42
2023-11-26T15:06:45.535Z,2.55
2023-11-26T15:09:13.007Z,2.55
2023-11-26T15:11:43.168Z,2.50
2023-11-26T15:14:12.273Z,2.60
2023-11-26T15:16:39.650Z,2.90
2023-11-26T15:19:07.168Z,2.65
2023-11-26T15:21:35.471Z,4.13
2023-11-26T15:24:04.078Z,3.58
2023-11-26T15:26:31.722Z,3.42
2023-11-26T15:29:14.534Z,3.85
2023-11-26T15:31:42.360Z,3.38
2023-11-26T15:34:11.414Z,4.07
2023-11-26T15:36:39.217Z,3.95
2023-11-26T15:39:06.607Z,4.20
2023-11-26T15:41:34.154Z,5.47
2023-11-26T15:44:01.554Z,5.93
2023-11-26T15:46:29.167Z,7.47
2023-11-26T15:48:57.486Z,7.75
2023-11-26T15:51:25.437Z,6.22
2023-11-26T15:54:02.516Z,5.90
2023-11-26T15:56:32.145Z,6.53
2023-11-26T15:58:59.506Z,6.05
2023-11-26T16:01:29.826Z,5.90
2023-11-26T16:03:57.632Z,5.78
2023-11-26T16:06:25.412Z,5.13
2023-11-26T16:08:55.243Z,5.38
2023-11-26T16:11:22.607Z,5.32
2023-11-26T16:13:52.375Z,5.18
2023-11-26T16:16:20.100Z,5.15
2023-11-26T16:18:47.653Z,4.53
2023-11-26T16:21:18.410Z,4.97
2023-11-26T16:23:45.691Z,5.10
2023-11-26T16:26:13.372Z,4.90
2023-11-26T16:28:41.103Z,6.50
2023-11-26T16:31:10.681Z,5.82
2023-11-26T16:33:54.510Z,6.35
2023-11-26T16:36:25.397Z,5.68
2023-11-26T16:38:55.752Z,5.65
2023-11-26T16:41:23.243Z,6.50
2023-11-26T16:43:53.766Z,6.28
2023-11-26T16:46:23.098Z,6.03
2023-11-26T16:48:50.549Z,7.25
2023-11-26T16:51:18.672Z,7.95
2023-11-26T16:53:46.946Z,7.22
2023-11-26T16:56:15.657Z,6.63
2023-11-26T16:58:45.969Z,9.18
2023-11-26T17:01:13.593Z,7.05
2023-11-26T17:03:42.090Z,6.82
2023-11-26T17:06:10.197Z,17.95
2023-11-26T17:08:37.621Z,16.13
2023-11-26T17:11:06.722Z,10.80
2023-11-26T17:13:34.187Z,15.02
2023-11-26T17:16:01.794Z,11.30
2023-11-26T17:18:32.200Z,11.43
2023-11-26T17:20:59.714Z,10.05
2023-11-26T17:23:27.070Z,9.63
2023-11-26T17:25:56.744Z,8.13
2023-11-26T17:28:24.167Z,8.20
2023-11-26T17:30:51.897Z,8.15
2023-11-26T17:33:19.710Z,6.88
2023-11-26T17:35:47.426Z,7.75
2023-11-26T17:38:14.721Z,8.10
2023-11-26T17:40:42.445Z,7.35
2023-11-26T17:43:10.537Z,6.97
2023-11-26T17:45:41.074Z,12.07
2023-11-26T17:48:08.496Z,8.00
2023-11-26T17:50:36.446Z,8.38
2023-11-26T17:53:10.277Z,8.07
2023-11-26T17:55:42.160Z,8.43
2023-11-26T17:58:12.833Z,8.73
2023-11-26T18:00:44.358Z,9.07
2023-11-26T18:03:11.973Z,8.70
2023-11-26T18:05:41.269Z,10.60
2023-11-26T18:08:08.768Z,12.55
2023-11-26T18:10:37.652Z,10.45
2023-11-26T18:13:05.016Z,9.40
2023-11-26T18:15:32.910Z,9.63
2023-11-26T18:18:00.390Z,10.57
2023-11-26T18:20:29.340Z,11.45
2023-11-26T18:22:56.664Z,10.25
2023-11-26T18:25:24.030Z,9.77
2023-11-26T18:27:51.879Z,10.68
2023-11-26T18:30:19.327Z,11.57
2023-11-26T18:32:46.662Z,12.60
2023-11-26T18:35:14.333Z,10.82
2023-11-26T18:37:41.862Z,10.55
2023-11-26T18:40:11.966Z,11.52
2023-11-26T18:42:39.647Z,10.23
2023-11-26T18:45:07.978Z,10.43
2023-11-26T18:47:35.417Z,11.20
2023-11-26T18:50:02.792Z,12.00
2023-11-26T18:52:30.097Z,12.10
2023-11-26T18:54:59.759Z,15.00
2023-11-26T18:57:29.375Z,14.35
2023-11-26T18:59:59.257Z,14.80
2023-11-26T19:02:26.733Z,14.48
2023-11-26T19:04:54.208Z,14.40
2023-11-26T19:07:21.549Z,13.18
2023-11-26T19:09:50.100Z,29.15
2023-11-26T19:12:17.626Z,16.48
2023-11-26T19:14:46.832Z,17.48
2023-11-26T19:17:14.365Z,16.60
2023-11-26T19:19:42.078Z,15.55
2023-11-26T19:22:09.685Z,17.05
2023-11-26T19:24:37.504Z,18.75
2023-11-26T19:27:05.135Z,17.25
2023-11-26T19:29:34.356Z,19.27
2023-11-26T19:32:02.582Z,21.30
2023-11-26T19:34:29.998Z,16.05
2023-11-26T19:36:57.466Z,15.68
2023-11-26T19:39:25.033Z,16.60
2023-11-26T19:41:52.301Z,13.98
2023-11-26T19:44:19.883Z,32.58
2023-11-26T19:46:47.653Z,42.97
2023-11-26T19:49:15.122Z,23.48
2023-11-26T19:51:46.723Z,18.00
2023-11-26T19:54:14.132Z,14.45
2023-11-26T19:56:41.558Z,13.73
2023-11-26T19:59:09.064Z,14.18
2023-11-26T20:01:36.479Z,14.48
2023-11-26T20:04:05.024Z,13.35
2023-11-26T20:06:32.530Z,13.80
2023-11-26T20:09:02.979Z,12.75
2023-11-26T20:11:30.427Z,14.07
2023-11-26T20:13:57.782Z,14.82
2023-11-26T20:16:25.996Z,15.00
2023-11-26T20:18:55.371Z,13.98
2023-11-26T20:21:22.950Z,13.25
2023-11-26T20:23:51.357Z,13.40
2023-11-26T20:26:22.578Z,13.40
2023-11-26T20:28:51.153Z,12.57
2023-11-26T20:31:18.687Z,12.35
2023-11-26T20:33:46.543Z,13.50
2023-11-26T20:36:22.201Z,13.30
2023-11-26T20:38:49.946Z,12.98
2023-11-26T20:41:17.252Z,12.82
2023-11-26T20:43:44.660Z,14.00
2023-11-26T20:46:23.091Z,14.23
2023-11-26T20:48:51.266Z,14.73
2023-11-26T20:51:26.702Z,16.17
2023-11-26T20:53:56.531Z,15.70
2023-11-26T20:56:25.207Z,15.73
2023-11-26T20:58:56.497Z,15.38
2023-11-26T21:01:24.076Z,15.27
2023-11-26T21:03:51.768Z,14.52
2023-11-26T21:06:21.967Z,15.63
2023-11-26T21:08:49.928Z,14.43
2023-11-26T21:11:17.284Z,14.63
2023-11-26T21:13:44.875Z,13.90
2023-11-26T21:16:12.395Z,13.98
2023-11-26T21:18:39.847Z,14.63
2023-11-26T21:21:07.695Z,15.73
2023-11-26T21:23:35.069Z,15.20
2023-11-26T21:26:02.438Z,15.77
2023-11-26T21:28:29.800Z,13.93
2023-11-26T21:30:58.243Z,13.88
2023-11-26T21:33:26.033Z,14.00
2023-11-26T21:35:53.470Z,13.88
2023-11-26T21:38:21.526Z,13.70
2023-11-26T21:40:57.437Z,13.25
2023-11-26T21:43:32.680Z,13.43
2023-11-26T21:46:00.220Z,12.82
2023-11-26T21:48:28.310Z,13.75
2023-11-26T21:50:55.966Z,13.15
2023-11-26T21:53:23.920Z,13.70
2023-11-26T21:55:53.216Z,13.32
2023-11-26T21:58:20.687Z,13.95
2023-11-26T22:00:48.176Z,13.68
2023-11-26T22:03:15.912Z,14.38
2023-11-26T22:05:43.287Z,14.45
2023-11-26T22:08:10.595Z,13.68
2023-11-26T22:10:38.593Z,13.70
2023-11-26T22:13:05.999Z,14.27
2023-11-26T22:15:33.328Z,13.73
2023-11-26T22:18:00.811Z,14.23
2023-11-26T22:20:28.203Z,13.93
2023-11-26T22:22:55.555Z,12.90
2023-11-26T22:25:23.183Z,12.90
2023-11-26T22:27:50.553Z,12.60
2023-11-26T22:30:18.056Z,13.07
2023-11-26T22:32:45.584Z,17.08
2023-11-26T22:35:13.382Z,13.20
2023-11-26T22:37:40.817Z,13.65
2023-11-26T22:40:08.999Z,13.02
2023-11-26T22:42:37.419Z,12.63
2023-11-26T22:45:06.833Z,13.43
2023-11-26T22:47:34.283Z,13.27
2023-11-26T22:50:02.147Z,12.50
2023-11-26T22:52:29.544Z,14.25
2023-11-26T22:54:58.836Z,13.63
2023-11-26T22:57:26.137Z,14.52
2023-11-26T22:59:53.614Z,14.80
2023-11-26T23:02:21.213Z,15.48
2023-11-26T23:04:48.579Z,15.35
2023-11-26T23:07:16.405Z,14.50
2023-11-26T23:09:44.027Z,14.25
2023-11-26T23:12:11.400Z,16.02
2023-11-26T23:14:38.958Z,15.85
2023-11-26T23:17:06.327Z,14.70
2023-11-26T23:19:34.250Z,16.30
2023-11-26T23:22:01.577Z,13.18
2023-11-26T23:24:29.103Z,12.93
2023-11-26T23:26:57.406Z,13.20
2023-11-26T23:29:24.872Z,12.55
2023-11-26T23:31:53.787Z,11.63
2023-11-26T23:34:22.099Z,11.75
2023-11-26T23:36:49.479Z,12.35
2023-11-26T23:39:16.749Z,11.85
2023-11-26T23:41:44.038Z,10.95
2023-11-26T23:44:11.532Z,11.05
2023-11-26T23:46:39.080Z,11.45
2023-11-26T23:49:09.510Z,11.57
2023-11-26T23:51:37.072Z,11.77
2023-11-26T23:54:04.434Z,12.05
2023-11-26T23:56:31.738Z,12.05
2023-11-26T23:58:59.127Z,11.82
